createdAt,value
2022-09-09T00:02:21.472Z,99029.47
2022-09-09T00:05:02.369Z,99028.06
2022-09-09T00:07:33.842Z,99024.16
2022-09-09T00:10:27.925Z,99034.44
2022-09-09T00:13:17.185Z,99033.22
2022-09-09T00:16:17.235Z,99036.09
2022-09-09T00:18:53.518Z,99035.28
2022-09-09T00:21:35.252Z,99035.47
2022-09-09T00:24:17.606Z,99040.81
2022-09-09T00:27:01.654Z,99042.06
2022-09-09T00:29:44.982Z,99037.75
2022-09-09T00:32:19.646Z,99041.66
2022-09-09T00:34:59.591Z,99035.72
2022-09-09T00:37:36.081Z,99036.94
2022-09-09T00:40:27.280Z,99029.97
2022-09-09T00:43:28.396Z,99033.91
2022-09-09T00:46:42.076Z,99040.44
2022-09-09T00:49:42.612Z,99041.47
2022-09-09T00:52:31.915Z,99042.28
2022-09-09T00:55:12.756Z,99039.03
2022-09-09T00:57:47.179Z,99044.75
2022-09-09T01:00:21.198Z,99039.88
2022-09-09T01:03:15.856Z,99045.41
2022-09-09T01:05:47.421Z,99050.88
2022-09-09T01:08:37.318Z,99058.28
2022-09-09T01:11:16.878Z,99055.00
2022-09-09T01:13:59.939Z,99058.47
2022-09-09T01:16:33.869Z,99050.69
2022-09-09T01:19:11.842Z,99052.53
2022-09-09T01:21:51.184Z,99052.97
2022-09-09T01:24:36.469Z,99054.19
2022-09-09T01:27:20.705Z,99049.47
2022-09-09T01:29:52.457Z,99043.53
2022-09-09T01:32:49.449Z,99045.56
2022-09-09T01:35:59.393Z,99049.69
2022-09-09T01:38:37.077Z,99052.53
2022-09-09T01:41:09.137Z,99051.72
2022-09-09T01:43:50.145Z,99044.78
2022-09-09T01:46:23.714Z,99043.97
2022-09-09T01:48:57.216Z,99040.47
2022-09-09T01:51:29.583Z,99048.28
2022-09-09T01:54:04.623Z,99048.66
2022-09-09T01:56:53.270Z,99043.97
2022-09-09T01:59:54.990Z,99047.47
2022-09-09T02:02:37.263Z,99055.00
2022-09-09T02:05:34.141Z,99043.53
2022-09-09T02:08:29.487Z,99033.53
2022-09-09T02:11:19.724Z,99035.78
2022-09-09T02:14:09.537Z,99040.88
2022-09-09T02:17:04.251Z,99047.25
2022-09-09T02:19:59.257Z,99045.81
2022-09-09T02:22:45.604Z,99045.19
2022-09-09T02:25:23.548Z,99046.44
2022-09-09T02:27:59.763Z,99035.16
2022-09-09T02:30:35.287Z,99047.66
2022-09-09T02:33:11.542Z,99044.16
2022-09-09T02:35:49.477Z,99041.50
2022-09-09T02:38:30.586Z,99055.25
2022-09-09T02:41:07.973Z,99053.59
2022-09-09T02:43:40.535Z,99050.13
2022-09-09T02:46:36.277Z,99048.69
2022-09-09T02:49:20.361Z,99051.56
2022-09-09T02:52:01.729Z,99049.50
2022-09-09T02:54:38.868Z,99045.41
2022-09-09T02:57:20.451Z,99050.31
2022-09-09T02:59:53.922Z,99044.38
2022-09-09T03:02:26.430Z,99049.91
2022-09-09T03:05:03.389Z,99045.81
2022-09-09T03:07:36.042Z,99049.91
2022-09-09T03:10:09.004Z,99050.53
2022-09-09T03:12:41.603Z,99046.22
2022-09-09T03:15:14.079Z,99051.56
2022-09-09T03:17:45.665Z,99044.59
2022-09-09T03:20:17.360Z,99053.00
2022-09-09T03:22:48.917Z,99050.31
2022-09-09T03:25:21.176Z,99047.66
2022-09-09T03:27:55.851Z,99052.75
2022-09-09T03:30:29.418Z,99056.47
2022-09-09T03:33:01.941Z,99058.06
2022-09-09T03:35:37.453Z,99063.19
2022-09-09T03:38:09.016Z,99056.03
2022-09-09T03:40:56.525Z,99068.31
2022-09-09T03:43:30.647Z,99063.81
2022-09-09T03:46:03.156Z,99054.00
2022-09-09T03:48:38.111Z,99054.63
2022-09-09T03:51:10.429Z,99055.00
2022-09-09T03:53:44.054Z,99058.88
2022-09-09T03:56:16.210Z,99052.97
2022-09-09T03:58:47.925Z,99050.13
2022-09-09T04:01:19.735Z,99048.47
2022-09-09T04:03:53.622Z,99046.63
2022-09-09T04:06:26.899Z,99050.31
2022-09-09T04:08:58.721Z,99048.66
2022-09-09T04:11:31.672Z,99050.50
2022-09-09T04:14:06.943Z,99050.50
2022-09-09T04:16:38.979Z,99049.28
2022-09-09T04:19:13.382Z,99056.84
2022-09-09T04:21:46.588Z,99044.19
2022-09-09T04:24:18.494Z,99043.97
2022-09-09T04:26:50.098Z,99046.41
2022-09-09T04:29:22.074Z,99049.69
2022-09-09T04:31:54.259Z,99047.66
2022-09-09T04:34:26.736Z,99052.16
2022-09-09T04:37:01.395Z,99055.84
2022-09-09T04:39:33.679Z,99054.63
2022-09-09T04:42:06.481Z,99055.25
2022-09-09T04:44:38.081Z,99056.66
2022-09-09T04:47:10.621Z,99059.75
2022-09-09T04:49:42.137Z,99061.97
2022-09-09T04:52:13.816Z,99065.06
2022-09-09T04:54:45.911Z,99066.47
2022-09-09T04:57:19.056Z,99062.19
2022-09-09T04:59:51.939Z,99063.00
2022-09-09T05:02:23.655Z,99067.09
2022-09-09T05:04:56.194Z,99063.63
2022-09-09T05:07:30.052Z,99062.38
2022-09-09T05:10:01.722Z,99066.03
2022-09-09T05:12:33.311Z,99065.44
2022-09-09T05:15:05.813Z,99069.53
2022-09-09T05:17:37.440Z,99079.78
2022-09-09T05:20:11.243Z,99077.50
2022-09-09T05:22:45.360Z,99076.38
2022-09-09T05:25:17.005Z,99070.38
2022-09-09T05:27:48.660Z,99064.78
2022-09-09T05:30:20.953Z,99071.66
2022-09-09T05:32:52.546Z,99069.78
2022-09-09T05:35:24.460Z,99069.69
2022-09-09T05:38:01.331Z,99076.28
2022-09-09T05:40:33.578Z,99072.06
2022-09-09T05:43:05.315Z,99074.06
2022-09-09T05:45:37.236Z,99068.50
2022-09-09T05:48:08.877Z,99061.53
2022-09-09T05:50:40.417Z,99063.38
2022-09-09T05:53:12.150Z,99073.47
2022-09-09T05:55:45.043Z,99075.56
2022-09-09T05:58:18.446Z,99082.34
2022-09-09T06:00:50.024Z,99075.22
2022-09-09T06:03:24.566Z,99075.88
2022-09-09T06:06:01.923Z,99086.13
2022-09-09T06:08:42.484Z,99086.28
2022-09-09T06:11:16.941Z,99095.06
2022-09-09T06:13:48.735Z,99100.56
2022-09-09T06:16:24.735Z,99104.22
2022-09-09T06:18:58.767Z,99096.31
2022-09-09T06:21:37.954Z,99093.13
2022-09-09T06:24:14.762Z,99095.38
2022-09-09T06:26:46.757Z,99096.75
2022-09-09T06:29:24.233Z,99093.75
2022-09-09T06:31:57.696Z,99088.03
2022-09-09T06:34:32.022Z,99097.00
2022-09-09T06:37:05.578Z,99100.03
2022-09-09T06:39:42.966Z,99095.59
2022-09-09T06:42:14.597Z,99099.06
2022-09-09T06:45:01.839Z,99096.56
2022-09-09T06:47:50.441Z,99082.84
2022-09-09T06:50:22.052Z,99081.53
2022-09-09T06:52:54.947Z,99080.31
2022-09-09T06:55:26.993Z,99080.38
2022-09-09T06:57:59.353Z,99079.50
2022-09-09T07:00:31.828Z,99086.09
2022-09-09T07:03:05.929Z,99085.91
2022-09-09T07:05:38.109Z,99088.31
2022-09-09T07:08:09.682Z,99087.59
2022-09-09T07:10:41.248Z,99084.41
2022-09-09T07:13:13.114Z,99087.25
2022-09-09T07:15:44.734Z,99084.94
2022-09-09T07:18:16.405Z,99097.59
2022-09-09T07:20:55.954Z,99080.59
2022-09-09T07:23:28.067Z,99085.97
2022-09-09T07:26:00.349Z,99082.84
2022-09-09T07:28:32.485Z,99082.72
2022-09-09T07:31:05.734Z,99074.00
2022-09-09T07:33:38.021Z,99078.13
2022-09-09T07:36:31.286Z,99071.44
2022-09-09T07:39:12.238Z,99069.53
2022-09-09T07:41:48.896Z,99077.09
2022-09-09T07:44:25.718Z,99084.91
2022-09-09T07:47:04.688Z,99080.84
2022-09-09T07:49:50.811Z,99080.06
2022-09-09T07:52:28.501Z,99078.16
2022-09-09T07:55:05.538Z,99083.84
2022-09-09T07:57:38.581Z,99076.28
2022-09-09T08:00:11.696Z,99070.88
2022-09-09T08:02:49.702Z,99079.50
2022-09-09T08:05:21.621Z,99078.97
2022-09-09T08:07:54.192Z,99087.28
2022-09-09T08:10:26.456Z,99088.03
2022-09-09T08:13:17.377Z,99085.09
2022-09-09T08:15:52.127Z,99084.34
2022-09-09T08:18:24.882Z,99095.41
2022-09-09T08:20:56.529Z,99097.53
2022-09-09T08:23:28.198Z,99104.88
2022-09-09T08:26:07.790Z,99095.19
2022-09-09T08:28:41.056Z,99089.25
2022-09-09T08:31:19.429Z,99096.56
2022-09-09T08:33:53.247Z,99099.25
2022-09-09T08:36:28.561Z,99103.03
2022-09-09T08:39:00.891Z,99101.94
2022-09-09T08:41:59.426Z,99101.13
2022-09-09T08:44:56.159Z,99101.97
2022-09-09T08:47:33.938Z,99099.25
2022-09-09T08:50:26.454Z,99088.72
2022-09-09T08:53:18.560Z,99082.75
2022-09-09T08:55:54.087Z,99088.19
2022-09-09T08:58:34.017Z,99101.69
2022-09-09T09:01:43.203Z,99093.31
2022-09-09T09:04:34.794Z,99100.53
2022-09-09T09:07:33.097Z,99093.81
2022-09-09T09:10:40.581Z,99086.66
2022-09-09T09:13:43.817Z,99088.72
2022-09-09T09:16:18.781Z,99088.75
2022-09-09T09:18:52.086Z,99075.19
2022-09-09T09:21:37.445Z,99073.25
2022-09-09T09:24:26.055Z,99073.25
2022-09-09T09:26:58.102Z,99072.19
2022-09-09T09:29:30.342Z,99065.41
2022-09-09T09:32:04.239Z,99068.06
2022-09-09T09:34:35.861Z,99062.53
2022-09-09T09:37:20.769Z,99056.88
2022-09-09T09:40:08.039Z,99064.41
2022-09-09T09:42:54.087Z,99055.41
2022-09-09T09:45:30.198Z,99045.88
2022-09-09T09:48:13.833Z,99044.59
2022-09-09T09:50:53.479Z,99039.69
2022-09-09T09:53:30.734Z,99037.06
2022-09-09T09:56:07.801Z,99032.63
2022-09-09T09:58:45.523Z,99033.41
2022-09-09T10:01:36.243Z,99034.25
2022-09-09T10:04:17.405Z,99032.50
2022-09-09T10:06:49.155Z,99033.38
2022-09-09T10:09:26.852Z,99041.88
2022-09-09T10:12:09.966Z,99034.50
2022-09-09T10:15:00.020Z,99013.22
2022-09-09T10:17:47.252Z,99026.16
2022-09-09T10:20:45.576Z,99023.34
2022-09-09T10:23:48.544Z,99020.69
2022-09-09T10:26:31.528Z,99018.88
2022-09-09T10:29:22.273Z,99014.94
2022-09-09T10:32:12.357Z,99003.75
2022-09-09T10:35:11.120Z,99002.25
2022-09-09T10:37:58.598Z,99011.19
2022-09-09T10:40:45.424Z,99015.25
2022-09-09T10:43:28.931Z,99012.06
2022-09-09T10:46:29.374Z,98988.59
2022-09-09T10:49:09.681Z,98987.19
2022-09-09T10:51:55.601Z,99002.16
2022-09-09T10:54:34.934Z,98994.22
2022-09-09T10:57:18.035Z,98991.06
2022-09-09T10:59:57.842Z,98988.56
2022-09-09T11:02:34.587Z,98987.13
2022-09-09T11:05:29.522Z,98989.81
2022-09-09T11:08:05.936Z,98990.78
2022-09-09T11:10:46.074Z,98997.34
2022-09-09T11:13:44.326Z,98992.44
2022-09-09T11:16:24.677Z,98986.25
2022-09-09T11:19:06.472Z,98992.94
2022-09-09T11:21:59.721Z,98988.88
2022-09-09T11:24:45.443Z,98996.41
2022-09-09T11:27:38.036Z,98983.09
2022-09-09T11:30:54.783Z,98989.34
2022-09-09T11:33:50.170Z,98989.44
2022-09-09T11:36:46.364Z,98985.06
2022-09-09T11:39:48.602Z,99008.31
2022-09-09T11:42:23.429Z,98997.22
2022-09-09T11:44:56.149Z,99003.78
2022-09-09T11:47:31.001Z,99003.19
2022-09-09T11:50:31.138Z,99000.53
2022-09-09T11:53:14.858Z,98993.50
2022-09-09T11:55:46.505Z,98989.03
2022-09-09T11:58:20.187Z,98998.84
2022-09-09T12:00:51.893Z,99002.16
2022-09-09T12:03:49.593Z,99009.75
2022-09-09T12:06:33.009Z,99010.31
2022-09-09T12:09:16.386Z,99006.28
2022-09-09T12:11:47.949Z,99013.03
2022-09-09T12:14:42.554Z,99008.38
2022-09-09T12:17:16.861Z,99020.47
2022-09-09T12:19:49.446Z,99013.81
2022-09-09T12:22:24.035Z,99010.66
2022-09-09T12:25:23.304Z,99029.91
2022-09-09T12:28:11.189Z,99053.53
2022-09-09T12:31:08.882Z,99055.94
2022-09-09T12:33:46.633Z,99064.72
2022-09-09T12:36:22.834Z,99091.19
2022-09-09T12:38:56.186Z,99049.97
2022-09-09T12:41:29.895Z,99052.84
2022-09-09T12:44:10.737Z,99046.44
2022-09-09T12:46:45.645Z,99063.41
2022-09-09T12:49:28.643Z,99061.50
2022-09-09T12:52:02.134Z,99085.63
2022-09-09T12:54:37.343Z,99098.44
2022-09-09T12:57:13.095Z,99106.69
2022-09-09T12:59:49.264Z,99119.19
2022-09-09T13:02:26.746Z,99115.91
2022-09-09T13:05:17.372Z,99133.91
2022-09-09T13:07:49.214Z,99125.50
2022-09-09T13:10:36.816Z,99101.72
2022-09-09T13:13:21.980Z,99097.94
2022-09-09T13:16:05.623Z,99077.50
2022-09-09T13:18:41.437Z,99068.44
2022-09-09T13:21:13.305Z,99058.47
2022-09-09T13:23:51.240Z,99050.44
2022-09-09T13:26:22.801Z,99052.84
2022-09-09T13:28:55.824Z,99065.44
2022-09-09T13:31:33.740Z,99048.75
2022-09-09T13:34:34.324Z,99059.53
2022-09-09T13:37:15.362Z,99050.59
2022-09-09T13:39:54.221Z,99046.09
2022-09-09T13:42:32.385Z,99036.53
2022-09-09T13:45:05.540Z,99030.72
2022-09-09T13:47:38.222Z,99021.09
2022-09-09T13:50:29.474Z,99021.31
2022-09-09T13:53:02.461Z,99003.00
2022-09-09T13:55:37.617Z,99004.22
2022-09-09T13:58:17.946Z,99008.78
2022-09-09T14:00:50.899Z,99001.47
2022-09-09T14:03:22.628Z,98999.22
2022-09-09T14:05:55.227Z,99005.72
2022-09-09T14:08:28.060Z,98998.91
2022-09-09T14:11:00.450Z,99001.94
2022-09-09T14:13:32.304Z,98996.06
2022-09-09T14:16:03.910Z,99000.34
2022-09-09T14:18:35.553Z,98997.22
2022-09-09T14:21:07.403Z,98988.16
2022-09-09T14:23:39.540Z,98978.34
2022-09-09T14:26:11.106Z,98984.13
2022-09-09T14:28:54.871Z,98980.78
2022-09-09T14:31:27.232Z,98979.97
2022-09-09T14:33:59.823Z,98981.22
2022-09-09T14:36:31.499Z,98986.53
2022-09-09T14:39:03.181Z,98975.13
2022-09-09T14:41:35.045Z,98979.69
2022-09-09T14:44:06.700Z,98964.38
2022-09-09T14:46:38.251Z,98969.59
2022-09-09T14:49:11.378Z,98966.38
2022-09-09T14:51:43.025Z,98970.75
2022-09-09T14:54:15.829Z,98963.50
2022-09-09T14:56:48.494Z,98973.72
2022-09-09T14:59:23.308Z,98972.16
2022-09-09T15:01:55.000Z,98970.28
2022-09-09T15:04:26.606Z,98963.38
2022-09-09T15:07:01.049Z,98960.84
2022-09-09T15:09:32.740Z,98953.09
2022-09-09T15:12:05.591Z,98964.06
2022-09-09T15:14:37.264Z,98961.63
2022-09-09T15:17:08.902Z,98951.16
2022-09-09T15:19:40.441Z,98958.16
2022-09-09T15:22:12.032Z,98960.28
2022-09-09T15:24:43.628Z,98956.97
2022-09-09T15:27:15.677Z,98956.31
2022-09-09T15:29:47.857Z,98952.53
2022-09-09T15:32:22.325Z,98957.91
2022-09-09T15:34:54.359Z,98963.50
2022-09-09T15:37:25.968Z,98960.53
2022-09-09T15:39:59.781Z,98963.69
2022-09-09T15:42:34.340Z,98962.50
2022-09-09T15:45:06.997Z,98954.88
2022-09-09T15:47:38.597Z,98962.38
2022-09-09T15:50:11.470Z,98955.84
2022-09-09T15:52:43.042Z,98955.78
2022-09-09T15:55:14.693Z,98949.59
2022-09-09T15:57:46.236Z,98948.31
2022-09-09T16:00:17.890Z,98943.91
2022-09-09T16:02:49.743Z,98944.97
2022-09-09T16:05:21.966Z,98952.56
2022-09-09T16:07:53.557Z,98947.91
2022-09-09T16:10:25.117Z,98958.06
2022-09-09T16:12:56.662Z,98956.44
2022-09-09T16:15:28.211Z,98956.09
2022-09-09T16:17:59.837Z,98963.34
2022-09-09T16:20:31.371Z,98967.34
2022-09-09T16:23:02.946Z,98964.66
2022-09-09T16:25:34.691Z,98974.59
2022-09-09T16:28:06.305Z,98968.16
2022-09-09T16:30:38.230Z,98966.53
2022-09-09T16:33:09.759Z,98960.03
2022-09-09T16:35:42.026Z,98963.44
2022-09-09T16:38:13.666Z,98965.81
2022-09-09T16:40:45.717Z,98958.06
2022-09-09T16:43:17.354Z,98958.16
2022-09-09T16:45:48.923Z,98956.03
2022-09-09T16:48:21.362Z,98972.78
2022-09-09T16:51:22.451Z,98973.13
2022-09-09T16:53:56.160Z,98972.66
2022-09-09T16:56:30.930Z,98975.34
2022-09-09T16:59:06.128Z,98971.03
2022-09-09T17:01:41.583Z,98984.44
2022-09-09T17:04:26.367Z,98979.09
2022-09-09T17:07:01.261Z,98984.22
2022-09-09T17:09:32.868Z,98987.94
2022-09-09T17:12:04.648Z,98983.88
2022-09-09T17:14:37.304Z,98996.72
2022-09-09T17:17:30.167Z,98992.66
2022-09-09T17:20:00.405Z,99006.31
2022-09-09T17:22:31.991Z,99008.22
2022-09-09T17:25:04.318Z,99000.63
2022-09-09T17:27:38.941Z,99002.75
2022-09-09T17:30:10.995Z,98992.50
2022-09-09T17:32:42.952Z,98995.41
2022-09-09T17:35:14.625Z,98987.06
2022-09-09T17:37:46.414Z,98992.91
2022-09-09T17:40:21.324Z,98994.44
2022-09-09T17:42:52.969Z,98996.25
2022-09-09T17:45:24.606Z,98997.53
2022-09-09T17:47:56.249Z,98992.81
2022-09-09T17:50:27.757Z,98997.28
2022-09-09T17:52:59.357Z,99005.25
2022-09-09T17:55:30.902Z,99009.72
2022-09-09T17:58:02.452Z,99010.69
2022-09-09T18:00:34.000Z,99015.16
2022-09-09T18:03:05.618Z,99016.19
2022-09-09T18:05:38.462Z,99017.47
2022-09-09T18:08:10.232Z,99014.69
2022-09-09T18:10:41.763Z,99025.91
2022-09-09T18:13:13.410Z,99025.81
2022-09-09T18:15:49.572Z,99046.81
2022-09-09T18:18:22.193Z,99041.81
2022-09-09T18:21:06.625Z,99034.25
2022-09-09T18:23:40.780Z,99040.06
2022-09-09T18:26:18.440Z,99037.41
2022-09-09T18:28:52.421Z,99039.53
2022-09-09T18:31:27.188Z,99043.47
2022-09-09T18:34:01.382Z,99044.88
2022-09-09T18:36:36.133Z,99050.56
2022-09-09T18:39:11.561Z,99053.03
2022-09-09T18:41:48.217Z,99050.00
2022-09-09T18:44:28.401Z,99048.28
2022-09-09T18:47:00.694Z,99048.50
2022-09-09T18:49:33.323Z,99055.75
2022-09-09T18:52:10.920Z,99052.56
2022-09-09T18:54:48.117Z,99054.91
2022-09-09T18:57:20.371Z,99054.09
2022-09-09T18:59:54.705Z,99049.69
2022-09-09T19:02:32.419Z,99056.91
2022-09-09T19:05:04.309Z,99052.50
2022-09-09T19:07:35.902Z,99056.69
2022-09-09T19:10:07.840Z,99051.22
2022-09-09T19:12:41.375Z,99042.59
2022-09-09T19:15:13.242Z,99061.03
2022-09-09T19:17:44.910Z,99051.38
2022-09-09T19:20:17.676Z,99053.44
2022-09-09T19:22:49.765Z,99063.59
2022-09-09T19:25:22.204Z,99063.59
2022-09-09T19:27:53.836Z,99058.31
2022-09-09T19:30:26.323Z,99071.13
2022-09-09T19:32:59.421Z,99067.03
2022-09-09T19:35:31.474Z,99075.06
2022-09-09T19:38:05.848Z,99072.41
2022-09-09T19:40:37.417Z,99071.00
2022-09-09T19:43:09.597Z,99070.53
2022-09-09T19:45:41.152Z,99077.88
2022-09-09T19:48:14.310Z,99073.56
2022-09-09T19:50:47.872Z,99077.06
2022-09-09T19:53:19.812Z,99080.56
2022-09-09T19:55:51.871Z,99074.84
2022-09-09T19:58:23.748Z,99073.69
2022-09-09T20:00:55.334Z,99075.19
2022-09-09T20:03:26.971Z,99087.19
2022-09-09T20:05:58.629Z,99080.88
2022-09-09T20:08:30.950Z,99079.56
2022-09-09T20:11:02.976Z,99089.59
2022-09-09T20:13:38.820Z,99081.19
2022-09-09T20:16:16.265Z,99081.44
2022-09-09T20:18:52.388Z,99074.88
2022-09-09T20:21:36.079Z,99075.69
2022-09-09T20:24:12.815Z,99070.34
2022-09-09T20:26:46.417Z,99071.16
2022-09-09T20:29:20.011Z,99068.94
2022-09-09T20:31:51.990Z,99068.19
2022-09-09T20:34:25.727Z,99070.63
2022-09-09T20:36:59.107Z,99068.66
2022-09-09T20:39:30.971Z,99074.25
2022-09-09T20:42:03.446Z,99081.88
2022-09-09T20:44:35.105Z,99084.63
2022-09-09T20:47:07.174Z,99072.97
2022-09-09T20:49:38.724Z,99075.63
2022-09-09T20:52:11.687Z,99071.56
2022-09-09T20:54:44.344Z,99073.66
2022-09-09T20:57:20.106Z,99060.28
2022-09-09T20:59:54.337Z,99063.56
2022-09-09T21:02:26.316Z,99055.28
2022-09-09T21:04:57.913Z,99045.47
2022-09-09T21:07:29.488Z,99033.19
2022-09-09T21:10:02.111Z,99033.00
2022-09-09T21:12:33.741Z,99033.34
2022-09-09T21:15:05.704Z,99032.34
2022-09-09T21:17:37.520Z,99031.13
2022-09-09T21:20:09.824Z,99011.47
2022-09-09T21:22:41.377Z,99010.38
2022-09-09T21:25:13.124Z,99008.03
2022-09-09T21:27:44.694Z,99003.47
2022-09-09T21:30:18.732Z,99000.66
2022-09-09T21:32:50.394Z,98989.16
2022-09-09T21:35:21.968Z,98991.59
2022-09-09T21:37:54.489Z,98995.56
2022-09-09T21:40:29.346Z,99024.94
2022-09-09T21:43:01.030Z,99027.16
2022-09-09T21:45:34.846Z,99044.97
2022-09-09T21:48:12.584Z,99067.59
2022-09-09T21:50:47.364Z,99120.31
2022-09-09T21:53:20.309Z,99136.41
2022-09-09T21:55:51.846Z,99117.56
2022-09-09T21:58:23.425Z,99114.53
2022-09-09T22:00:54.983Z,99113.31
2022-09-09T22:03:26.671Z,99109.22
2022-09-09T22:05:58.886Z,99107.66
2022-09-09T22:08:30.452Z,99099.63
2022-09-09T22:11:08.740Z,99100.63
2022-09-09T22:13:40.668Z,99088.25
2022-09-09T22:16:14.143Z,99096.69
2022-09-09T22:18:51.601Z,99103.06
2022-09-09T22:21:23.920Z,99102.63
2022-09-09T22:23:58.006Z,99114.28
2022-09-09T22:26:32.079Z,99111.19
2022-09-09T22:29:04.986Z,99103.97
2022-09-09T22:31:36.628Z,99105.84
2022-09-09T22:34:08.311Z,99113.25
2022-09-09T22:36:39.842Z,99106.88
2022-09-09T22:39:11.430Z,99114.28
2022-09-09T22:41:42.977Z,99110.44
2022-09-09T22:44:14.913Z,99113.53
2022-09-09T22:46:46.624Z,99107.00
2022-09-09T22:49:18.229Z,99116.31
2022-09-09T22:51:50.683Z,99122.13
2022-09-09T22:54:23.636Z,99107.63
2022-09-09T22:56:55.251Z,99104.41
2022-09-09T22:59:28.052Z,99106.91
2022-09-09T23:01:59.923Z,99102.41
2022-09-09T23:04:31.485Z,99101.22
2022-09-09T23:07:07.994Z,99103.53
2022-09-09T23:09:39.543Z,99106.81
2022-09-09T23:12:11.235Z,99101.72
2022-09-09T23:14:42.817Z,99103.16
2022-09-09T23:17:17.696Z,99105.06
2022-09-09T23:19:56.696Z,99107.31
2022-09-09T23:22:29.066Z,99103.84
2022-09-09T23:25:01.667Z,99102.59
2022-09-09T23:27:33.528Z,99089.47
2022-09-09T23:30:07.172Z,99092.97
2022-09-09T23:32:38.877Z,99095.25
2022-09-09T23:35:16.009Z,99098.53
2022-09-09T23:37:48.040Z,99105.75
2022-09-09T23:40:19.637Z,99102.25
2022-09-09T23:42:51.205Z,99104.31
2022-09-09T23:45:22.759Z,99108.81
2022-09-09T23:47:55.756Z,99109.25
2022-09-09T23:50:30.464Z,99122.19
2022-09-09T23:53:03.170Z,99116.22
2022-09-09T23:55:35.791Z,99112.34
2022-09-09T23:58:07.957Z,99113.38
